Time;durP1;ratioP1;P1;durP2;ratioP2;P2;SDS_P1;SDS_P2;PMS_P1;PMS_P2;Temp;Humidity;BMP_temperature;BMP_pressure;BME280_temperature;BME280_humidity;BME280_pressure;Samples;Min_cycle;Max_cycle;Signal;HPM_P1;HPM_P2
2022/09/26 00:02:11;;;;;;;;;;;;;;;;;;4987937;28;19925;-65
2022/09/26 00:04:39;;;;;;;;;;;;;;;;;;4982223;28;19928;-64
2022/09/26 00:07:04;;;;;;;;;;;;;;;;;;4976367;28;19922;-63
2022/09/26 00:09:29;;;;;;;;;;;;;;;;;;4987298;28;20143;-65
2022/09/26 00:11:55;;;;;;;;;;;;;;;;;;4970326;28;19921;-64
2022/09/26 00:14:20;;;;;;;;;;;;;;;;;;4973678;28;19926;-65
2022/09/26 00:16:48;;;;;;;;;;;;;;;;;;4959639;28;19929;-65
2022/09/26 00:19:13;;;;;;;;;;;;;;;;;;4964513;28;20508;-65
2022/09/26 00:21:38;;;;;;;;;;;;;;;;;;4973442;28;20020;-64
2022/09/26 00:24:04;;;;;;;;;;;;;;;;;;4987039;28;19922;-65
2022/09/26 00:26:30;;;;;;;;;;;;;;;;;;4988293;28;19925;-64
2022/09/26 00:28:57;;;;;;;;;;;;;;;;;;4987530;28;19972;-66
2022/09/26 00:31:23;;;;;;;;;;;;;;;;;;4986010;28;19925;-64
2022/09/26 00:33:48;;;;;;;;;;;;;;;;;;4957363;28;20385;-64
2022/09/26 00:36:14;;;;;;;;;;;;;;;;;;4964842;28;19973;-66
2022/09/26 00:38:39;;;;;;;;;;;;;;;;;;4971066;28;20008;-65
2022/09/26 00:41:05;;;;;;;;;;;;;;;;;;4974774;28;20325;-64
2022/09/26 00:43:30;;;;;;;;;;;;;;;;;;4985394;28;19933;-66
2022/09/26 00:45:55;;;;;;;;;;;;;;;;;;4969775;28;19957;-64
2022/09/26 00:48:23;;;;;;;;;;;;;;;;;;4975400;28;19972;-63
2022/09/26 00:50:49;;;;;;;;;;;;;;;;;;4988043;28;19921;-64
2022/09/26 00:53:14;;;;;;;;;;;;;;;;;;4970225;28;19979;-64
2022/09/26 00:55:40;;;;;;;;;;;;;;;;;;4970990;28;19968;-64
2022/09/26 00:58:05;;;;;;;;;;;;;;;;;;4968361;28;19943;-65
2022/09/26 01:00:31;;;;;;;;;;;;;;;;;;4988275;28;20393;-64
2022/09/26 01:02:56;;;;;;;;;;;;;;;;;;4969399;28;20454;-64
2022/09/26 01:05:21;;;;;;;;;;;;;;;;;;4958740;28;19945;-65
2022/09/26 01:07:47;;;;;;;;;;;;;;;;;;4966506;28;19917;-65
2022/09/26 01:10:12;;;;;;;;;;;;;;;;;;4968003;28;19932;-66
2022/09/26 01:12:38;;;;;;;;;;;;;;;;;;4979973;28;19927;-62
2022/09/26 01:15:04;;;;;;;;;;;;;;;;;;4973304;28;20334;-64
2022/09/26 01:17:29;;;;;;;;;;;;;;;;;;4983167;28;19980;-64
2022/09/26 01:19:54;;;;;;;;;;;;;;;;;;4954940;28;21701;-64
2022/09/26 01:22:20;;;;;;;;;;;;;;;;;;4985991;28;19921;-64
2022/09/26 01:24:45;;;;;;;;;;;;;;;;;;4979763;28;19925;-64
2022/09/26 01:27:11;;;;;;;;;;;;;;;;;;4957473;28;19952;-65
2022/09/26 01:29:39;;;;;;;;;;;;;;;;;;4985240;28;19929;-64
2022/09/26 01:34:51;;;;;;;;;;;;;;;;;;4985295;28;20004;-65
2022/09/26 01:37:16;;;;;;;;;;;;;;;;;;4984074;28;19925;-64
2022/09/26 01:39:42;;;;;;;;;;;;;;;;;;4986066;28;20436;-67
2022/09/26 01:42:07;;;;;;;;;;;;;;;;;;4984593;28;19949;-65
2022/09/26 01:44:33;;;;;;;;;;;;;;;;;;4972846;28;19953;-64
2022/09/26 01:46:58;;;;;;;;;;;;;;;;;;4969177;28;19947;-65
2022/09/26 01:49:24;;;;;;;;;;;;;;;;;;4984982;28;19921;-65
2022/09/26 01:51:49;;;;;;;;;;;;;;;;;;4971519;28;20501;-64
2022/09/26 01:54:17;;;;;;;;;;;;;;;;;;4983125;28;19925;-64
2022/09/26 01:56:42;;;;;;;;;;;;;;;;;;4975522;28;19922;-67
2022/09/26 01:59:08;;;;;;;;;;;;;;;;;;4954120;28;20418;-63
2022/09/26 02:01:35;;;;;;;;;;;;;;;;;;4971781;28;19960;-67
2022/09/26 02:04:01;;;;;;;;;;;;;;;;;;4969336;28;20016;-64
2022/09/26 02:06:26;;;;;;;;;;;;;;;;;;4974255;28;19921;-62
2022/09/26 02:08:52;;;;;;;;;;;;;;;;;;4970358;28;20450;-64
2022/09/26 02:11:18;;;;;;;;;;;;;;;;;;4970237;28;20021;-65
2022/09/26 02:13:43;;;;;;;;;;;;;;;;;;4979571;28;20012;-66
2022/09/26 02:16:09;;;;;;;;;;;;;;;;;;4983505;28;19921;-66
2022/09/26 02:18:37;;;;;;;;;;;;;;;;;;4968863;28;19929;-65
2022/09/26 02:21:03;;;;;;;;;;;;;;;;;;4967659;28;19928;-65
2022/09/26 02:23:29;;;;;;;;;;;;;;;;;;4982659;28;19918;-64
2022/09/26 02:25:54;;;;;;;;;;;;;;;;;;4984343;28;20012;-63
2022/09/26 02:28:22;;;;;;;;;;;;;;;;;;4971284;28;19921;-61
2022/09/26 02:30:48;;;;;;;;;;;;;;;;;;4970472;28;19928;-62
2022/09/26 02:33:14;;;;;;;;;;;;;;;;;;4983832;28;19921;-61
2022/09/26 02:35:54;;;;;;;;;;;;;;;;;;4985610;28;19925;-60
2022/09/26 02:38:22;;;;;;;;;;;;;;;;;;4983284;28;19965;-62
2022/09/26 02:40:50;;;;;;;;;;;;;;;;;;4968939;28;20304;-61
2022/09/26 02:43:15;;;;;;;;;;;;;;;;;;4984533;28;20301;-61
2022/09/26 02:45:40;;;;;;;;;;;;;;;;;;4985253;28;19925;-60
2022/09/26 02:48:07;;;;;;;;;;;;;;;;;;4985061;28;19925;-61
2022/09/26 02:50:32;;;;;;;;;;;;;;;;;;4985927;28;19922;-60
2022/09/26 02:53:00;;;;;;;;;;;;;;;;;;4967902;28;19941;-61
2022/09/26 02:55:25;;;;;;;;;;;;;;;;;;4985082;28;19921;-61
2022/09/26 02:57:53;;;;;;;;;;;;;;;;;;4970269;28;19972;-61
2022/09/26 03:00:18;;;;;;;;;;;;;;;;;;4970914;28;19932;-60
2022/09/26 03:02:46;;;;;;;;;;;;;;;;;;4954413;28;19921;-60
2022/09/26 03:05:12;;;;;;;;;;;;;;;;;;4970710;28;19921;-62
2022/09/26 03:07:39;;;;;;;;;;;;;;;;;;4968030;28;20386;-60
2022/09/26 03:10:08;;;;;;;;;;;;;;;;;;4987495;28;19921;-60
2022/09/26 03:12:33;;;;;;;;;;;;;;;;;;4969044;28;19929;-59
2022/09/26 03:14:58;;;;;;;;;;;;;;;;;;4968153;28;20421;-60
2022/09/26 03:17:27;;;;;;;;;;;;;;;;;;4988081;28;20527;-61
2022/09/26 03:19:52;;;;;;;;;;;;;;;;;;4986716;28;19997;-59
2022/09/26 03:22:17;;;;;;;;;;;;;;;;;;4973494;28;19928;-60
2022/09/26 03:24:45;;;;;;;;;;;;;;;;;;4987003;28;19936;-60
2022/09/26 03:27:11;;;;;;;;;;;;;;;;;;4988509;28;19992;-61
2022/09/26 03:29:37;;;;;;;;;;;;;;;;;;4972900;28;19921;-60
2022/09/26 03:32:03;;;;;;;;;;;;;;;;;;4973713;28;20024;-60
2022/09/26 03:34:28;;;;;;;;;;;;;;;;;;4968194;28;19923;-60
2022/09/26 03:36:56;;;;;;;;;;;;;;;;;;4970590;28;20413;-62
2022/09/26 03:39:24;;;;;;;;;;;;;;;;;;4971319;28;19952;-60
2022/09/26 03:41:50;;;;;;;;;;;;;;;;;;4972722;28;20365;-60
2022/09/26 03:44:17;;;;;;;;;;;;;;;;;;4987407;28;19926;-61
2022/09/26 03:46:46;;;;;;;;;;;;;;;;;;4970363;28;19967;-60
2022/09/26 03:49:13;;;;;;;;;;;;;;;;;;4957337;28;19952;-63
2022/09/26 03:51:43;;;;;;;;;;;;;;;;;;4971260;28;19925;-60
2022/09/26 03:54:10;;;;;;;;;;;;;;;;;;4986914;28;20051;-59
2022/09/26 03:56:36;;;;;;;;;;;;;;;;;;4967731;28;19921;-60
2022/09/26 03:59:01;;;;;;;;;;;;;;;;;;4961691;28;19933;-59
2022/09/26 04:01:27;;;;;;;;;;;;;;;;;;4985932;28;19997;-59
2022/09/26 04:03:52;;;;;;;;;;;;;;;;;;4967255;28;19940;-60
2022/09/26 04:06:21;;;;;;;;;;;;;;;;;;4971824;28;20063;-61
2022/09/26 04:08:46;;;;;;;;;;;;;;;;;;4983091;28;20337;-60
2022/09/26 04:11:12;;;;;;;;;;;;;;;;;;4983455;28;19944;-61
2022/09/26 04:13:39;;;;;;;;;;;;;;;;;;4983873;28;19917;-61
2022/09/26 04:16:05;;;;;;;;;;;;;;;;;;4967636;28;20381;-60
2022/09/26 04:18:30;;;;;;;;;;;;;;;;;;4972817;28;19940;-60
2022/09/26 04:20:58;;;;;;;;;;;;;;;;;;4985797;28;19922;-60
2022/09/26 04:23:24;;;;;;;;;;;;;;;;;;4985750;28;19983;-61
2022/09/26 04:25:52;;;;;;;;;;;;;;;;;;4986112;28;19921;-61
2022/09/26 04:28:20;;;;;;;;;;;;;;;;;;4957710;28;19969;-60
2022/09/26 04:30:48;;;;;;;;;;;;;;;;;;4985717;28;19925;-61
2022/09/26 04:33:13;;;;;;;;;;;;;;;;;;4986917;28;20622;-60
2022/09/26 04:35:39;;;;;;;;;;;;;;;;;;4971478;28;19922;-60
2022/09/26 04:38:04;;;;;;;;;;;;;;;;;;4970480;28;19933;-59
2022/09/26 04:40:32;;;;;;;;;;;;;;;;;;4960267;28;19957;-61
2022/09/26 04:42:58;;;;;;;;;;;;;;;;;;4970072;28;19918;-60
2022/09/26 04:45:26;;;;;;;;;;;;;;;;;;4985660;28;19928;-60
2022/09/26 04:47:54;;;;;;;;;;;;;;;;;;4986682;28;19921;-60
2022/09/26 04:50:20;;;;;;;;;;;;;;;;;;4970068;28;19988;-61
2022/09/26 04:53:00;;;;;;;;;;;;;;;;;;4984139;28;19921;-61
2022/09/26 04:55:30;;;;;;;;;;;;;;;;;;4970387;28;19917;-61
2022/09/26 04:57:55;;;;;;;;;;;;;;;;;;4969783;28;19935;-58
2022/09/26 05:00:22;;;;;;;;;;;;;;;;;;4971584;28;19918;-61
2022/09/26 05:02:50;;;;;;;;;;;;;;;;;;4955660;28;19926;-60
2022/09/26 05:05:15;;;;;;;;;;;;;;;;;;4985917;28;20458;-61
2022/09/26 05:07:40;;;;;;;;;;;;;;;;;;4973355;28;19921;-59
2022/09/26 05:10:08;;;;;;;;;;;;;;;;;;4973340;28;20025;-60
2022/09/26 05:12:38;;;;;;;;;;;;;;;;;;4971382;28;19922;-60
2022/09/26 05:15:07;;;;;;;;;;;;;;;;;;4989987;28;19921;-62
2022/09/26 05:17:33;;;;;;;;;;;;;;;;;;4989840;28;21702;-61
2022/09/26 05:20:00;;;;;;;;;;;;;;;;;;4990292;28;19928;-60
2022/09/26 05:22:28;;;;;;;;;;;;;;;;;;4990603;28;19962;-60
2022/09/26 05:27:37;;;;;;;;;;;;;;;;;;4973659;28;20397;-62
2022/09/26 05:30:06;;;;;;;;;;;;;;;;;;4971394;28;19925;-60
2022/09/26 05:32:33;;;;;;;;;;;;;;;;;;4987320;28;19921;-61
2022/09/26 05:34:59;;;;;;;;;;;;;;;;;;4988100;28;19917;-62
2022/09/26 05:37:24;;;;;;;;;;;;;;;;;;4954666;28;20538;-60
2022/09/26 05:42:34;;;;;;;;;;;;;;;;;;4970866;28;19926;-60
2022/09/26 05:45:02;;;;;;;;;;;;;;;;;;4971912;28;20285;-61
2022/09/26 05:47:31;;;;;;;;;;;;;;;;;;4988537;28;19916;-59
2022/09/26 05:49:56;;;;;;;;;;;;;;;;;;4987972;28;20897;-62
2022/09/26 05:52:22;;;;;;;;;;;;;;;;;;4973872;28;19927;-60
2022/09/26 05:54:47;;;;;;;;;;;;;;;;;;4972368;28;19936;-60
2022/09/26 05:57:13;;;;;;;;;;;;;;;;;;4972778;28;21896;-61
2022/09/26 05:59:41;;;;;;;;;;;;;;;;;;4988685;28;19925;-63
2022/09/26 06:02:09;;;;;;;;;;;;;;;;;;4957237;28;19925;-62
2022/09/26 06:04:35;;;;;;;;;;;;;;;;;;4972394;28;20497;-61
2022/09/26 06:07:00;;;;;;;;;;;;;;;;;;4987094;28;19922;-60
2022/09/26 06:09:25;;;;;;;;;;;;;;;;;;4985775;28;19925;-63
2022/09/26 06:11:50;;;;;;;;;;;;;;;;;;4963104;28;20370;-61
2022/09/26 06:14:25;;;;;;;;;;;;;;;;;;4969751;28;20052;-60
2022/09/26 06:16:50;;;;;;;;;;;;;;;;;;4970717;28;20027;-61
2022/09/26 06:19:16;;;;;;;;;;;;;;;;;;4985834;28;19922;-62
2022/09/26 06:24:57;;;;;;;;;;;;;;;;;;4984899;28;19948;-59
2022/09/26 06:27:25;;;;;;;;;;;;;;;;;;4970687;28;20772;-60
2022/09/26 06:29:53;;;;;;;;;;;;;;;;;;4984813;28;19968;-60
2022/09/26 06:32:34;;;;;;;;;;;;;;;;;;4983876;28;20024;-63
2022/09/26 06:35:00;;;;;;;;;;;;;;;;;;4986461;28;19922;-60
2022/09/26 06:37:28;;;;;;;;;;;;;;;;;;4955181;28;19976;-58
2022/09/26 06:39:56;;;;;;;;;;;;;;;;;;4984649;28;19921;-61
2022/09/26 06:45:06;;;;;;;;;;;;;;;;;;4985974;28;19976;-59
2022/09/26 06:47:36;;;;;;;;;;;;;;;;;;4983236;28;20017;-58
2022/09/26 06:50:02;;;;;;;;;;;;;;;;;;4969825;28;19972;-60
2022/09/26 06:52:33;;;;;;;;;;;;;;;;;;4970673;28;19929;-61
2022/09/26 06:55:01;;;;;;;;;;;;;;;;;;4968305;28;20638;-60
2022/09/26 06:57:27;;;;;;;;;;;;;;;;;;4970271;28;19956;-60
2022/09/26 06:59:52;;;;;;;;;;;;;;;;;;4956721;28;20068;-60
2022/09/26 07:02:20;;;;;;;;;;;;;;;;;;4975122;28;19921;-63
2022/09/26 07:04:46;;;;;;;;;;;;;;;;;;4973411;28;20032;-63
2022/09/26 07:07:11;;;;;;;;;;;;;;;;;;4954370;28;19918;-61
2022/09/26 07:09:39;;;;;;;;;;;;;;;;;;4968166;28;19948;-62
2022/09/26 07:12:07;;;;;;;;;;;;;;;;;;4968843;28;20661;-62
2022/09/26 07:14:32;;;;;;;;;;;;;;;;;;4978927;28;19924;-62
2022/09/26 07:20:15;;;;;;;;;;;;;;;;;;4983202;28;19968;-61
2022/09/26 07:22:46;;;;;;;;;;;;;;;;;;4969298;28;19921;-60
2022/09/26 07:25:11;;;;;;;;;;;;;;;;;;4983573;28;19933;-60
2022/09/26 07:27:49;;;;;;;;;;;;;;;;;;4973306;28;20044;-60
2022/09/26 07:30:15;;;;;;;;;;;;;;;;;;4965693;28;19972;-61
2022/09/26 07:32:46;;;;;;;;;;;;;;;;;;4967063;28;20047;-61
2022/09/26 07:35:23;;;;;;;;;;;;;;;;;;4954354;28;19918;-60
2022/09/26 07:37:51;;;;;;;;;;;;;;;;;;4982456;28;19922;-60
2022/09/26 07:40:19;;;;;;;;;;;;;;;;;;4980570;28;19933;-60
2022/09/26 07:42:47;;;;;;;;;;;;;;;;;;4955693;28;19925;-60
2022/09/26 07:51:47;;;;;;;;;;;;;;;;;;4984580;28;19928;-60
2022/09/26 07:57:12;;;;;;;;;;;;;;;;;;4986863;28;19986;-59
2022/09/26 07:59:44;;;;;;;;;;;;;;;;;;4987492;28;19928;-62
2022/09/26 08:02:11;;;;;;;;;;;;;;;;;;4985478;28;20001;-60
2022/09/26 08:04:36;;;;;;;;;;;;;;;;;;4959680;28;19922;-60
2022/09/26 08:07:01;;;;;;;;;;;;;;;;;;4973205;28;19926;-61
2022/09/26 08:09:27;;;;;;;;;;;;;;;;;;4970841;28;19929;-60
2022/09/26 08:11:52;;;;;;;;;;;;;;;;;;4960463;28;19933;-60
2022/09/26 08:14:20;;;;;;;;;;;;;;;;;;4958766;28;20523;-59
2022/09/26 08:16:48;;;;;;;;;;;;;;;;;;4969019;28;19922;-60
2022/09/26 08:19:16;;;;;;;;;;;;;;;;;;4988108;28;20016;-61
2022/09/26 08:21:53;;;;;;;;;;;;;;;;;;4975170;28;19959;-62
2022/09/26 08:27:12;;;;;;;;;;;;;;;;;;4968607;28;19925;-60
2022/09/26 08:32:31;;;;;;;;;;;;;;;;;;4986291;28;19922;-59
2022/09/26 08:34:56;;;;;;;;;;;;;;;;;;4971956;28;19918;-60
2022/09/26 08:37:25;;;;;;;;;;;;;;;;;;4972442;28;19926;-60
2022/09/26 08:39:50;;;;;;;;;;;;;;;;;;4988174;28;19924;-61
2022/09/26 08:42:18;;;;;;;;;;;;;;;;;;4959441;28;19921;-62
2022/09/26 08:44:48;;;;;;;;;;;;;;;;;;4987263;28;19977;-61
2022/09/26 08:47:17;;;;;;;;;;;;;;;;;;4975887;28;20352;-61
2022/09/26 08:49:43;;;;;;;;;;;;;;;;;;4969493;28;19921;-62
2022/09/26 08:55:25;;;;;;;;;;;;;;;;;;4985388;28;19981;-60
2022/09/26 09:01:08;;;;;;;;;;;;;;;;;;4987114;28;19991;-62
2022/09/26 09:03:35;;;;;;;;;;;;;;;;;;4969193;28;19922;-59
2022/09/26 09:06:15;;;;;;;;;;;;;;;;;;4972435;28;19917;-61
2022/09/26 09:08:43;;;;;;;;;;;;;;;;;;4965437;28;20115;-60
2022/09/26 09:11:20;;;;;;;;;;;;;;;;;;4967237;28;19925;-61
2022/09/26 09:14:01;;;;;;;;;;;;;;;;;;4967180;28;19917;-61
2022/09/26 09:16:26;;;;;;;;;;;;;;;;;;4966312;28;19922;-61
2022/09/26 09:22:09;;;;;;;;;;;;;;;;;;4966507;28;20074;-63
2022/09/26 09:24:34;;;;;;;;;;;;;;;;;;4968309;28;19925;-64
2022/09/26 09:27:00;;;;;;;;;;;;;;;;;;4964896;28;19918;-63
2022/09/26 09:29:28;;;;;;;;;;;;;;;;;;4968127;28;19922;-64
2022/09/26 09:31:53;;;;;;;;;;;;;;;;;;4964430;28;19922;-62
2022/09/26 09:34:19;;;;;;;;;;;;;;;;;;4965828;28;19948;-63
2022/09/26 09:36:47;;;;;;;;;;;;;;;;;;4961378;28;19929;-64
2022/09/26 09:39:14;;;;;;;;;;;;;;;;;;4962981;28;20863;-60
2022/09/26 09:41:40;;;;;;;;;;;;;;;;;;4966746;28;20020;-62
2022/09/26 09:44:05;;;;;;;;;;;;;;;;;;4952700;28;20000;-61
2022/09/26 09:46:30;;;;;;;;;;;;;;;;;;4964077;28;20298;-65
2022/09/26 09:48:56;;;;;;;;;;;;;;;;;;4965536;28;20646;-60
2022/09/26 09:51:21;;;;;;;;;;;;;;;;;;4965072;28;20444;-63
2022/09/26 09:53:46;;;;;;;;;;;;;;;;;;4966708;28;20001;-61
2022/09/26 09:56:14;;;;;;;;;;;;;;;;;;4948552;28;19925;-65
2022/09/26 09:58:42;;;;;;;;;;;;;;;;;;4960225;28;21067;-60
2022/09/26 10:01:08;;;;;;;;;;;;;;;;;;4964110;28;19917;-63
2022/09/26 10:03:34;;;;;;;;;;;;;;;;;;4966029;28;19972;-63
2022/09/26 10:09:18;;;;;;;;;;;;;;;;;;4976798;28;19975;-63
2022/09/26 10:11:47;;;;;;;;;;;;;;;;;;4967819;28;19917;-64
2022/09/26 10:14:12;;;;;;;;;;;;;;;;;;4968056;28;19921;-64
2022/09/26 10:16:38;;;;;;;;;;;;;;;;;;4969129;28;20384;-63
2022/09/26 10:19:04;;;;;;;;;;;;;;;;;;4985919;28;19938;-63
2022/09/26 10:21:33;;;;;;;;;;;;;;;;;;4970848;28;20004;-62
2022/09/26 10:24:00;;;;;;;;;;;;;;;;;;4984201;28;19929;-64
2022/09/26 10:26:33;;;;;;;;;;;;;;;;;;4966488;28;19925;-62
2022/09/26 10:32:17;;;;;;;;;;;;;;;;;;4982040;28;19950;-63
2022/09/26 10:34:42;;;;;;;;;;;;;;;;;;4973330;28;20338;-63
2022/09/26 10:37:08;;;;;;;;;;;;;;;;;;4970074;28;19922;-61
2022/09/26 10:42:20;;;;;;;;;;;;;;;;;;4968624;28;19951;-60
2022/09/26 10:44:49;;;;;;;;;;;;;;;;;;4970816;28;19961;-60
2022/09/26 10:47:15;;;;;;;;;;;;;;;;;;4986177;28;20040;-63
2022/09/26 10:49:40;;;;;;;;;;;;;;;;;;4970933;28;19971;-63
2022/09/26 10:52:07;;;;;;;;;;;;;;;;;;4983669;28;19934;-60
2022/09/26 10:54:32;;;;;;;;;;;;;;;;;;4985149;28;20029;-62
2022/09/26 10:57:17;;;;;;;;;;;;;;;;;;4983950;28;20030;-61
2022/09/26 11:00:07;;;;;;;;;;;;;;;;;;4970653;28;19963;-60
2022/09/26 11:02:32;;;;;;;;;;;;;;;;;;4983496;28;19980;-61
2022/09/26 11:11:02;;;;;;;;;;;;;;;;;;4968881;28;20453;-60
2022/09/26 11:13:41;;;;;;;;;;;;;;;;;;4983267;28;19928;-62
2022/09/26 11:16:08;;;;;;;;;;;;;;;;;;4982822;28;20213;-63
2022/09/26 11:18:34;;;;;;;;;;;;;;;;;;4962446;28;19957;-61
2022/09/26 11:23:52;;;;;;;;;;;;;;;;;;4968859;28;20567;-61
2022/09/26 11:26:18;;;;;;;;;;;;;;;;;;4955618;28;19928;-60
2022/09/26 11:28:46;;;;;;;;;;;;;;;;;;4986826;28;20619;-61
2022/09/26 11:31:12;;;;;;;;;;;;;;;;;;4971505;28;19932;-60
2022/09/26 11:33:43;;;;;;;;;;;;;;;;;;4969460;28;19922;-60
2022/09/26 11:36:13;;;;;;;;;;;;;;;;;;4990026;28;19929;-62
2022/09/26 11:38:41;;;;;;;;;;;;;;;;;;4987215;28;19921;-59
2022/09/26 11:41:06;;;;;;;;;;;;;;;;;;4972724;28;19971;-61
2022/09/26 11:43:34;;;;;;;;;;;;;;;;;;4971871;28;20015;-60
2022/09/26 11:46:03;;;;;;;;;;;;;;;;;;4972083;28;19926;-61
2022/09/26 11:51:46;;;;;;;;;;;;;;;;;;4987478;28;19929;-61
2022/09/26 11:57:32;;;;;;;;;;;;;;;;;;4988065;28;19977;-62
2022/09/26 12:00:00;;;;;;;;;;;;;;;;;;4976581;28;19921;-62
2022/09/26 12:02:26;;;;;;;;;;;;;;;;;;4965228;28;19975;-61
2022/09/26 12:04:52;;;;;;;;;;;;;;;;;;4986797;28;19928;-63
2022/09/26 12:10:34;;;;;;;;;;;;;;;;;;4989098;28;20276;-60
2022/09/26 12:13:05;;;;;;;;;;;;;;;;;;4972110;28;20468;-62
2022/09/26 12:24:48;;;;;;;;;;;;;;;;;;4974433;28;20942;-60
2022/09/26 12:27:16;;;;;;;;;;;;;;;;;;4976380;28;19921;-64
2022/09/26 12:29:41;;;;;;;;;;;;;;;;;;4973672;28;19921;-60
2022/09/26 12:32:07;;;;;;;;;;;;;;;;;;4976811;28;19928;-63
2022/09/26 12:34:36;;;;;;;;;;;;;;;;;;4982111;28;20016;-59
2022/09/26 12:37:02;;;;;;;;;;;;;;;;;;4974024;28;20970;-59
2022/09/26 12:39:27;;;;;;;;;;;;;;;;;;4969749;28;19922;-61
2022/09/26 12:41:53;;;;;;;;;;;;;;;;;;4991896;28;19925;-61
2022/09/26 12:47:09;;;;;;;;;;;;;;;;;;4969233;28;20009;-60
2022/09/26 12:49:34;;;;;;;;;;;;;;;;;;4975521;28;19925;-61
2022/09/26 12:55:16;;;;;;;;;;;;;;;;;;4991896;28;19928;-60
2022/09/26 12:57:44;;;;;;;;;;;;;;;;;;4972902;28;19925;-61
2022/09/26 13:00:11;;;;;;;;;;;;;;;;;;4990335;28;20396;-60
2022/09/26 13:02:39;;;;;;;;;;;;;;;;;;4969980;28;20297;-60
2022/09/26 13:05:04;;;;;;;;;;;;;;;;;;4957371;28;20419;-59
2022/09/26 13:07:30;;;;;;;;;;;;;;;;;;4990216;28;19928;-60
2022/09/26 13:09:57;;;;;;;;;;;;;;;;;;4986606;28;19976;-60
2022/09/26 13:15:20;;;;;;;;;;;;;;;;;;4984739;28;19917;-65
2022/09/26 13:17:48;;;;;;;;;;;;;;;;;;4986948;28;21342;-60
2022/09/26 13:20:17;;;;;;;;;;;;;;;;;;4986052;28;20520;-61
2022/09/26 13:22:42;;;;;;;;;;;;;;;;;;4986321;28;19918;-60
2022/09/26 13:25:08;;;;;;;;;;;;;;;;;;4970069;28;20491;-60
2022/09/26 13:27:35;;;;;;;;;;;;;;;;;;4962927;28;20739;-61
2022/09/26 13:30:00;;;;;;;;;;;;;;;;;;4969468;28;20091;-60
2022/09/26 13:42:15;;;;;;;;;;;;;;;;;;4985787;28;21098;-60
2022/09/26 13:44:43;;;;;;;;;;;;;;;;;;4987343;28;20059;-60
2022/09/26 13:47:11;;;;;;;;;;;;;;;;;;4986326;28;19921;-60
2022/09/26 13:49:39;;;;;;;;;;;;;;;;;;4973128;28;19917;-59
2022/09/26 13:58:38;;;;;;;;;;;;;;;;;;4982109;28;19940;-61
2022/09/26 14:03:57;;;;;;;;;;;;;;;;;;4984759;28;19918;-60
2022/09/26 14:09:24;;;;;;;;;;;;;;;;;;4981641;28;19922;-61
2022/09/26 14:11:50;;;;;;;;;;;;;;;;;;4971627;28;19929;-60
2022/09/26 14:14:18;;;;;;;;;;;;;;;;;;4969491;28;19980;-62
2022/09/26 14:16:43;;;;;;;;;;;;;;;;;;4971803;28;19925;-62
2022/09/26 14:19:09;;;;;;;;;;;;;;;;;;4986321;28;19925;-64
2022/09/26 14:21:34;;;;;;;;;;;;;;;;;;4968732;28;19925;-62
2022/09/26 14:27:28;;;;;;;;;;;;;;;;;;4981049;28;19925;-63
2022/09/26 14:29:54;;;;;;;;;;;;;;;;;;4971839;28;20000;-63
2022/09/26 14:32:22;;;;;;;;;;;;;;;;;;4956508;28;19929;-63
2022/09/26 14:34:47;;;;;;;;;;;;;;;;;;4973436;28;20023;-66
2022/09/26 14:37:13;;;;;;;;;;;;;;;;;;4984472;28;19917;-62
2022/09/26 14:39:39;;;;;;;;;;;;;;;;;;4974513;28;19932;-61
2022/09/26 14:42:13;;;;;;;;;;;;;;;;;;4968286;28;19931;-65
2022/09/26 14:44:39;;;;;;;;;;;;;;;;;;4972840;28;20045;-65
2022/09/26 14:47:10;;;;;;;;;;;;;;;;;;4970483;28;19918;-65
2022/09/26 14:49:40;;;;;;;;;;;;;;;;;;4979670;28;19917;-64
2022/09/26 14:52:06;;;;;;;;;;;;;;;;;;4984381;28;20681;-63
2022/09/26 14:54:32;;;;;;;;;;;;;;;;;;4985557;28;20028;-65
2022/09/26 14:56:58;;;;;;;;;;;;;;;;;;4955342;28;19987;-63
2022/09/26 14:59:23;;;;;;;;;;;;;;;;;;4969583;28;20621;-65
2022/09/26 15:01:51;;;;;;;;;;;;;;;;;;4982799;28;20000;-64
2022/09/26 15:04:17;;;;;;;;;;;;;;;;;;4983836;28;20016;-64
2022/09/26 15:09:39;;;;;;;;;;;;;;;;;;4983567;28;19921;-66
2022/09/26 15:12:23;;;;;;;;;;;;;;;;;;4962398;28;20931;-63
2022/09/26 15:14:49;;;;;;;;;;;;;;;;;;4983318;28;19956;-65
2022/09/26 15:17:19;;;;;;;;;;;;;;;;;;4965567;28;20009;-65
2022/09/26 15:23:00;;;;;;;;;;;;;;;;;;4983527;28;20028;-65
2022/09/26 15:28:42;;;;;;;;;;;;;;;;;;4983313;28;19924;-66
2022/09/26 15:31:07;;;;;;;;;;;;;;;;;;4969854;28;19925;-64
2022/09/26 15:33:33;;;;;;;;;;;;;;;;;;4967312;28;20896;-60
2022/09/26 15:35:58;;;;;;;;;;;;;;;;;;4985429;28;19956;-60
2022/09/26 15:38:23;;;;;;;;;;;;;;;;;;4982596;28;20416;-60
2022/09/26 15:40:49;;;;;;;;;;;;;;;;;;4955010;28;21828;-61
2022/09/26 15:43:15;;;;;;;;;;;;;;;;;;4983071;28;19976;-61
2022/09/26 15:45:45;;;;;;;;;;;;;;;;;;4971809;28;19929;-62
2022/09/26 15:48:13;;;;;;;;;;;;;;;;;;4968725;28;19922;-62
2022/09/26 15:50:39;;;;;;;;;;;;;;;;;;4951249;28;19964;-60
2022/09/26 15:53:06;;;;;;;;;;;;;;;;;;4984053;28;20012;-59
2022/09/26 15:55:32;;;;;;;;;;;;;;;;;;4969153;28;20437;-61
2022/09/26 15:58:00;;;;;;;;;;;;;;;;;;4983283;28;19948;-60
2022/09/26 16:00:26;;;;;;;;;;;;;;;;;;4972928;28;20255;-61
2022/09/26 16:02:51;;;;;;;;;;;;;;;;;;4967667;28;19922;-60
2022/09/26 16:05:16;;;;;;;;;;;;;;;;;;4972933;28;20724;-61
2022/09/26 16:07:42;;;;;;;;;;;;;;;;;;4982553;28;20277;-61
2022/09/26 16:10:10;;;;;;;;;;;;;;;;;;4966240;28;19922;-63
2022/09/26 16:12:40;;;;;;;;;;;;;;;;;;4969515;28;19926;-61
2022/09/26 16:15:06;;;;;;;;;;;;;;;;;;4974951;28;19921;-61
2022/09/26 16:20:28;;;;;;;;;;;;;;;;;;4972984;28;19933;-60
2022/09/26 16:22:55;;;;;;;;;;;;;;;;;;4988173;28;19924;-60
2022/09/26 16:25:23;;;;;;;;;;;;;;;;;;4972047;28;19976;-62
2022/09/26 16:28:10;;;;;;;;;;;;;;;;;;4987802;28;19921;-60
2022/09/26 16:30:36;;;;;;;;;;;;;;;;;;4987566;28;21908;-61
2022/09/26 16:33:14;;;;;;;;;;;;;;;;;;4985737;28;19957;-60
2022/09/26 16:35:39;;;;;;;;;;;;;;;;;;4971503;28;19922;-61
2022/09/26 16:38:07;;;;;;;;;;;;;;;;;;4969295;28;20024;-61
2022/09/26 16:40:32;;;;;;;;;;;;;;;;;;4971168;28;19921;-60
2022/09/26 16:42:58;;;;;;;;;;;;;;;;;;4988281;28;19928;-61
2022/09/26 16:45:23;;;;;;;;;;;;;;;;;;4972419;28;19968;-61
2022/09/26 16:47:49;;;;;;;;;;;;;;;;;;4985934;28;20935;-60
2022/09/26 16:50:15;;;;;;;;;;;;;;;;;;4986934;28;19943;-60
2022/09/26 16:52:44;;;;;;;;;;;;;;;;;;4986552;28;19922;-60
2022/09/26 16:55:12;;;;;;;;;;;;;;;;;;4971898;28;19964;-60
2022/09/26 16:57:37;;;;;;;;;;;;;;;;;;4970617;28;20464;-59
2022/09/26 17:03:22;;;;;;;;;;;;;;;;;;4985897;28;20032;-60
2022/09/26 17:05:47;;;;;;;;;;;;;;;;;;4957730;28;19917;-61
2022/09/26 17:08:16;;;;;;;;;;;;;;;;;;4970592;28;19932;-62
2022/09/26 17:10:43;;;;;;;;;;;;;;;;;;4988084;28;19979;-61
2022/09/26 17:13:09;;;;;;;;;;;;;;;;;;4971517;28;20463;-61
2022/09/26 17:15:38;;;;;;;;;;;;;;;;;;4974113;28;19992;-60
2022/09/26 17:18:05;;;;;;;;;;;;;;;;;;4976215;28;20308;-60
2022/09/26 17:20:31;;;;;;;;;;;;;;;;;;4972983;28;19918;-60
2022/09/26 17:26:15;;;;;;;;;;;;;;;;;;4987156;28;19928;-61
2022/09/26 17:28:42;;;;;;;;;;;;;;;;;;4974116;28;19921;-62
2022/09/26 17:31:13;;;;;;;;;;;;;;;;;;4972703;28;19925;-61
2022/09/26 17:36:54;;;;;;;;;;;;;;;;;;4988987;28;20379;-61
2022/09/26 17:39:25;;;;;;;;;;;;;;;;;;4990676;28;19959;-60
2022/09/26 17:41:53;;;;;;;;;;;;;;;;;;4975775;28;19918;-61
2022/09/26 17:44:21;;;;;;;;;;;;;;;;;;4959396;28;19925;-60
2022/09/26 17:46:47;;;;;;;;;;;;;;;;;;4991314;28;19924;-61
2022/09/26 17:49:15;;;;;;;;;;;;;;;;;;4959028;28;21929;-62
2022/09/26 17:54:34;;;;;;;;;;;;;;;;;;4988698;28;19917;-61
2022/09/26 17:59:54;;;;;;;;;;;;;;;;;;4989793;28;20437;-61
2022/09/26 18:02:22;;;;;;;;;;;;;;;;;;4988349;28;19921;-60
2022/09/26 18:04:50;;;;;;;;;;;;;;;;;;4988556;28;19947;-62
2022/09/26 18:07:21;;;;;;;;;;;;;;;;;;4987017;28;19921;-62
2022/09/26 18:09:46;;;;;;;;;;;;;;;;;;4969276;28;19932;-62
2022/09/26 18:12:14;;;;;;;;;;;;;;;;;;4985790;28;19937;-61
2022/09/26 18:14:42;;;;;;;;;;;;;;;;;;4984043;28;19921;-60
2022/09/26 18:17:07;;;;;;;;;;;;;;;;;;4969703;28;19948;-62
2022/09/26 18:19:37;;;;;;;;;;;;;;;;;;4974081;28;19925;-65
2022/09/26 18:22:04;;;;;;;;;;;;;;;;;;4953121;28;19922;-60
2022/09/26 18:24:35;;;;;;;;;;;;;;;;;;4968273;28;19929;-61
2022/09/26 20:26:16;;;;;;;;;;;;;;;;;;4986278;28;20057;-60
2022/09/26 20:28:42;;;;;;;;;;;;;;;;;;4987358;28;19976;-60
2022/09/26 20:31:11;;;;;;;;;;;;;;;;;;4986755;28;20059;-62
2022/09/26 20:33:36;;;;;;;;;;;;;;;;;;4971568;28;19955;-61
2022/09/26 20:36:04;;;;;;;;;;;;;;;;;;4971951;28;19929;-62
2022/09/26 20:38:29;;;;;;;;;;;;;;;;;;4973819;28;19926;-62
2022/09/26 20:40:55;;;;;;;;;;;;;;;;;;4985695;28;20806;-63
2022/09/26 20:43:23;;;;;;;;;;;;;;;;;;4980759;28;19924;-62
2022/09/26 20:45:49;;;;;;;;;;;;;;;;;;4985608;28;19949;-63
2022/09/26 20:48:15;;;;;;;;;;;;;;;;;;4985652;28;20381;-62
2022/09/26 20:50:40;;;;;;;;;;;;;;;;;;4985707;28;19933;-62
2022/09/26 20:53:09;;;;;;;;;;;;;;;;;;4986121;28;20000;-62
2022/09/26 20:55:34;;;;;;;;;;;;;;;;;;4972091;28;20043;-61
2022/09/26 20:58:01;;;;;;;;;;;;;;;;;;4986942;28;19933;-63
2022/09/26 21:00:28;;;;;;;;;;;;;;;;;;4972245;28;19917;-61
2022/09/26 21:02:55;;;;;;;;;;;;;;;;;;4985731;28;20615;-64
2022/09/26 21:05:27;;;;;;;;;;;;;;;;;;4980128;28;19921;-62
2022/09/26 21:07:52;;;;;;;;;;;;;;;;;;4952497;28;19933;-63